Time;durP1;ratioP1;P1;durP2;ratioP2;P2;SDS_P1;SDS_P2;PMS_P1;PMS_P2;Temp;Humidity;BMP_temperature;BMP_pressure;BME280_temperature;BME280_humidity;BME280_pressure;Samples;Min_cycle;Max_cycle;Signal;HPM_P1;HPM_P2
2022/07/03 00:02:04;;;;;;;;;;;;;;;-149.78;100.00;50174.19;4940929;29;19944;-71
2022/07/03 00:04:30;;;;;;;;;;;;;;;-149.78;100.00;50201.56;4933914;29;19919;-71
2022/07/03 00:06:55;;;;;;;;;;;;;;;-149.78;100.00;50185.91;4927983;29;19923;-70
2022/07/03 00:09:21;;;;;;;;;;;;;;;-149.78;100.00;50189.81;4924798;29;19969;-70
2022/07/03 00:11:48;;;;;;;;;;;;;;;-149.78;100.00;50201.56;4925984;29;20430;-70
2022/07/03 00:14:13;;;;;;;;;;;;;;;-149.78;100.00;50207.44;4924300;29;19926;-70
2022/07/03 00:16:39;;;;;;;;;;;;;;;-149.78;100.00;50217.19;4919120;29;19923;-71
2022/07/03 00:19:04;;;;;;;;;;;;;;;-149.78;100.00;50234.81;4927703;29;19930;-70
2022/07/03 00:21:51;;;;;;;;;;;;;;;-149.78;100.00;50238.72;4923212;29;20401;-70
2022/07/03 00:24:35;;;;;;;;;;;;;;;-149.78;100.00;50217.19;4924997;29;19930;-71
2022/07/03 00:27:01;;;;;;;;;;;;;;;-149.78;100.00;50213.28;4920673;29;19925;-70
2022/07/03 00:29:31;;;;;;;;;;;;;;;-149.78;100.00;50205.47;4937420;29;19973;-70
2022/07/03 00:31:57;;;;;;;;;;;;;;;-149.78;100.00;50201.56;4930058;29;19927;-70
2022/07/03 00:34:25;;;;;;;;;;;;;;;-149.78;100.00;50244.59;4927767;29;19919;-70
2022/07/03 00:36:52;;;;;;;;;;;;;;;-149.78;100.00;50205.47;4933768;29;19919;-70
2022/07/03 00:39:17;;;;;;;;;;;;;;;-149.78;100.00;50209.38;4936805;29;21193;-70
2022/07/03 00:41:44;;;;;;;;;;;;;;;-149.78;100.00;50225.03;4935700;29;20070;-70
2022/07/03 00:44:10;;;;;;;;;;;;;;;-149.78;100.00;50209.38;4924236;29;19923;-70
2022/07/03 00:46:38;;;;;;;;;;;;;;;-149.78;100.00;50211.34;4923520;29;20354;-70
2022/07/03 00:49:04;;;;;;;;;;;;;;;-149.78;100.00;50236.75;4920664;29;19990;-70
2022/07/03 00:51:29;;;;;;;;;;;;;;;-149.78;100.00;50217.19;4918097;29;19986;-70
2022/07/03 00:53:55;;;;;;;;;;;;;;;-149.78;100.00;50197.66;4935005;29;19929;-70
2022/07/03 00:56:25;;;;;;;;;;;;;;;-149.78;100.00;50189.81;4925446;29;19927;-70
2022/07/03 00:58:55;;;;;;;;;;;;;;;-149.78;100.00;50209.38;4929908;29;20359;-70
2022/07/03 01:01:22;;;;;;;;;;;;;;;-149.78;100.00;50211.34;4930143;29;19926;-70
2022/07/03 01:03:53;;;;;;;;;;;;;;;-149.78;100.00;50221.13;4919841;29;20040;-70
2022/07/03 01:06:18;;;;;;;;;;;;;;;-149.78;100.00;50197.66;4929771;29;19923;-70
2022/07/03 01:08:51;;;;;;;;;;;;;;;-149.78;100.00;50221.13;4933614;29;19922;-70
2022/07/03 01:11:32;;;;;;;;;;;;;;;-149.78;100.00;50185.91;4923618;29;20366;-70
2022/07/03 01:14:08;;;;;;;;;;;;;;;-149.78;100.00;50205.47;4934963;29;20386;-71
2022/07/03 01:16:37;;;;;;;;;;;;;;;-149.78;100.00;50209.38;4926609;29;19962;-70
2022/07/03 01:19:21;;;;;;;;;;;;;;;-149.78;100.00;50203.50;4921756;29;19973;-70
2022/07/03 01:21:46;;;;;;;;;;;;;;;-149.78;100.00;50236.75;4918290;29;20334;-70
2022/07/03 01:24:30;;;;;;;;;;;;;;;-149.78;100.00;50205.47;4933202;29;19918;-71
2022/07/03 01:26:57;;;;;;;;;;;;;;;-149.78;100.00;50250.44;4934789;29;19919;-70
2022/07/03 01:29:25;;;;;;;;;;;;;;;-149.78;100.00;50236.75;4929289;29;19919;-70
2022/07/03 01:31:53;;;;;;;;;;;;;;;-149.78;100.00;50248.50;4916789;29;19931;-70
2022/07/03 01:34:19;;;;;;;;;;;;;;;-149.78;100.00;50232.84;4945134;29;19923;-70
2022/07/03 01:36:47;;;;;;;;;;;;;;;-149.78;100.00;50193.72;4934595;29;20001;-70
2022/07/03 01:39:15;;;;;;;;;;;;;;;-149.78;100.00;50252.41;4933064;29;20547;-70
2022/07/03 01:41:42;;;;;;;;;;;;;;;-149.78;100.00;50242.63;4923351;29;19927;-70
2022/07/03 01:44:11;;;;;;;;;;;;;;;-149.78;100.00;50217.19;4932893;29;20038;-70
2022/07/03 01:46:38;;;;;;;;;;;;;;;-149.78;100.00;50217.19;4948332;29;19918;-70
2022/07/03 01:49:06;;;;;;;;;;;;;;;-149.78;100.00;50201.56;4926503;29;20382;-70
2022/07/03 01:51:34;;;;;;;;;;;;;;;-149.78;100.00;50203.50;4932046;29;19926;-70
2022/07/03 01:54:00;;;;;;;;;;;;;;;-149.78;100.00;50232.84;4926237;29;19927;-70
2022/07/03 01:56:26;;;;;;;;;;;;;;;-149.78;100.00;50217.19;4916646;29;20458;-70
2022/07/03 01:58:51;;;;;;;;;;;;;;;-149.78;100.00;50226.97;4918015;29;19919;-70
2022/07/03 02:01:21;;;;;;;;;;;;;;;-149.78;100.00;50254.34;4930542;29;19954;-70
2022/07/03 02:03:50;;;;;;;;;;;;;;;-149.78;100.00;50226.97;4924289;29;19926;-70
2022/07/03 02:06:27;;;;;;;;;;;;;;;-149.78;100.00;50221.13;4933681;29;19919;-70
2022/07/03 02:08:53;;;;;;;;;;;;;;;-149.78;100.00;50225.03;4930443;28;19923;-70
2022/07/03 02:11:22;;;;;;;;;;;;;;;-149.78;100.00;50217.19;4933314;29;19934;-70
2022/07/03 02:13:51;;;;;;;;;;;;;;;-149.78;100.00;50248.50;4921438;29;19972;-70
2022/07/03 02:16:19;;;;;;;;;;;;;;;-149.78;100.00;50209.38;4935374;29;20282;-70
2022/07/03 02:18:49;;;;;;;;;;;;;;;-149.78;100.00;50228.94;4926558;29;19927;-70
2022/07/03 02:21:24;;;;;;;;;;;;;;;-149.78;100.00;50234.81;4920967;29;20442;-70
2022/07/03 02:24:03;;;;;;;;;;;;;;;-149.78;100.00;50225.03;4925853;29;19919;-70
2022/07/03 02:26:38;;;;;;;;;;;;;;;-149.78;100.00;50228.94;4934581;29;19930;-70
2022/07/03 02:29:13;;;;;;;;;;;;;;;-149.78;100.00;50275.88;4931030;29;19946;-70
2022/07/03 02:31:41;;;;;;;;;;;;;;;-149.78;100.00;50226.97;4920246;29;20286;-70
2022/07/03 02:34:07;;;;;;;;;;;;;;;-149.78;100.00;50258.28;4919511;29;20013;-70
2022/07/03 02:36:37;;;;;;;;;;;;;;;-149.78;100.00;50252.41;4929074;29;19930;-71
2022/07/03 02:39:04;;;;;;;;;;;;;;;-149.78;100.00;50232.84;4916776;29;19923;-70
2022/07/03 02:41:37;;;;;;;;;;;;;;;-149.78;100.00;50240.66;4934347;29;20002;-70
2022/07/03 02:44:07;;;;;;;;;;;;;;;-149.78;100.00;50256.31;4932209;29;19942;-70
2022/07/03 02:46:49;;;;;;;;;;;;;;;-149.78;100.00;50268.03;4927056;29;19922;-71
2022/07/03 02:49:18;;;;;;;;;;;;;;;-149.78;100.00;50260.22;4931054;29;20375;-71
2022/07/03 02:51:46;;;;;;;;;;;;;;;-149.78;100.00;50232.84;4933412;29;19966;-71
2022/07/03 02:54:13;;;;;;;;;;;;;;;-149.78;100.00;50223.06;4921494;29;19919;-72
2022/07/03 02:56:58;;;;;;;;;;;;;;;-149.78;100.00;50234.81;4933794;29;19919;-74
2022/07/03 02:59:32;;;;;;;;;;;;;;;-149.78;100.00;50225.03;4931839;29;19918;-72
2022/07/03 03:02:14;;;;;;;;;;;;;;;-149.78;100.00;50256.31;4934119;29;20018;-74
2022/07/03 03:04:43;;;;;;;;;;;;;;;-149.78;100.00;50242.63;4918739;29;19923;-71
2022/07/03 03:07:16;;;;;;;;;;;;;;;-149.78;100.00;50244.59;4926841;29;19929;-71
2022/07/03 03:09:43;;;;;;;;;;;;;;;-149.78;100.00;50260.22;4930300;29;19919;-70
2022/07/03 03:12:10;;;;;;;;;;;;;;;-149.78;100.00;50238.72;4919460;29;19931;-70
2022/07/03 03:14:39;;;;;;;;;;;;;;;-149.78;100.00;50225.03;4916042;29;20322;-71
2022/07/03 03:17:05;;;;;;;;;;;;;;;-149.78;100.00;50256.31;4919061;29;20410;-70
2022/07/03 03:19:34;;;;;;;;;;;;;;;-149.78;100.00;50236.75;4910932;29;19962;-70
2022/07/03 03:22:03;;;;;;;;;;;;;;;-149.78;100.00;50248.50;4919633;29;19919;-70
2022/07/03 03:24:28;;;;;;;;;;;;;;;-149.78;100.00;50246.53;4918818;29;19923;-70
2022/07/03 03:26:54;;;;;;;;;;;;;;;-149.78;100.00;50256.31;4919293;29;19958;-70
2022/07/03 03:29:20;;;;;;;;;;;;;;;-149.78;100.00;50228.94;4920062;29;20033;-70
2022/07/03 03:31:45;;;;;;;;;;;;;;;-149.78;100.00;50250.44;4921623;29;20014;-70
2022/07/03 03:34:11;;;;;;;;;;;;;;;-149.78;100.00;50236.75;4913483;29;19927;-70
2022/07/03 03:36:37;;;;;;;;;;;;;;;-149.78;100.00;50240.66;4904900;29;20038;-70
2022/07/03 03:39:02;;;;;;;;;;;;;;;-149.78;100.00;50232.84;4908055;29;19927;-70
2022/07/03 03:41:28;;;;;;;;;;;;;;;-149.78;100.00;50228.94;4902089;29;19934;-70
2022/07/03 03:43:53;;;;;;;;;;;;;;;-149.78;100.00;50252.41;4919339;29;20017;-70
2022/07/03 03:46:18;;;;;;;;;;;;;;;-149.78;100.00;50252.41;4905742;29;19923;-70
2022/07/03 03:48:44;;;;;;;;;;;;;;;-149.78;100.00;50240.66;4911386;29;19927;-70
2022/07/03 03:51:10;;;;;;;;;;;;;;;-149.78;100.00;50242.63;4932959;29;19926;-70
2022/07/03 03:53:35;;;;;;;;;;;;;;;-149.78;100.00;50244.59;4923098;29;20359;-70
2022/07/03 03:56:03;;;;;;;;;;;;;;;-149.78;100.00;50258.28;4918379;29;19930;-70
2022/07/03 03:58:29;;;;;;;;;;;;;;;-149.78;100.00;50228.94;4905958;29;19958;-70
2022/07/03 04:00:58;;;;;;;;;;;;;;;-149.78;100.00;50262.19;4910435;29;19926;-70
2022/07/03 04:03:27;;;;;;;;;;;;;;;-149.78;100.00;50228.94;4900058;29;20292;-70
2022/07/03 04:05:53;;;;;;;;;;;;;;;-149.78;100.00;50213.28;4912356;29;19919;-70
2022/07/03 04:08:20;;;;;;;;;;;;;;;-149.78;100.00;50244.59;4920778;29;19919;-70
2022/07/03 04:10:46;;;;;;;;;;;;;;;-149.78;100.00;50264.13;4909116;29;19920;-70
2022/07/03 04:13:11;;;;;;;;;;;;;;;-149.78;100.00;50279.78;4914216;29;19919;-70
2022/07/03 04:15:37;;;;;;;;;;;;;;;-149.78;100.00;50228.94;4928512;29;20338;-70
2022/07/03 04:18:02;;;;;;;;;;;;;;;-149.78;100.00;50256.31;4937822;29;20003;-70
2022/07/03 04:20:28;;;;;;;;;;;;;;;-149.78;100.00;50213.28;4934259;29;19982;-70
2022/07/03 04:22:53;;;;;;;;;;;;;;;-149.78;100.00;50226.97;4909650;29;19970;-70
2022/07/03 04:25:19;;;;;;;;;;;;;;;-149.78;100.00;50185.91;4925099;29;20006;-70
2022/07/03 04:27:44;;;;;;;;;;;;;;;-149.78;100.00;50217.19;4930485;29;19926;-70
2022/07/03 04:30:10;;;;;;;;;;;;;;;-149.78;100.00;50201.56;4918070;29;19923;-70
2022/07/03 04:32:36;;;;;;;;;;;;;;;-149.78;100.00;50236.75;4922840;29;19989;-70
2022/07/03 04:35:02;;;;;;;;;;;;;;;-149.78;100.00;50221.13;4919785;29;19945;-70
2022/07/03 04:37:28;;;;;;;;;;;;;;;-149.78;100.00;50201.56;4930090;29;19926;-70
2022/07/03 04:39:53;;;;;;;;;;;;;;;-149.78;100.00;50217.19;4935980;29;19926;-70
2022/07/03 04:42:18;;;;;;;;;;;;;;;-149.78;100.00;50225.03;4926461;29;20030;-70
2022/07/03 04:44:44;;;;;;;;;;;;;;;-149.78;100.00;50221.13;4936516;29;19923;-70
2022/07/03 04:47:10;;;;;;;;;;;;;;;-149.78;100.00;50221.13;4929625;29;19923;-70
2022/07/03 04:49:35;;;;;;;;;;;;;;;-149.78;100.00;50264.13;4935017;29;20013;-71
2022/07/03 04:52:01;;;;;;;;;;;;;;;-149.78;100.00;50217.19;4936846;29;19927;-70
2022/07/03 04:54:26;;;;;;;;;;;;;;;-149.78;100.00;50201.56;4937405;29;19923;-70
2022/07/03 04:56:52;;;;;;;;;;;;;;;-149.78;100.00;50209.38;4936286;29;20026;-71
2022/07/03 04:59:17;;;;;;;;;;;;;;;-149.78;100.00;50236.75;4935712;29;19978;-71
2022/07/03 05:01:43;;;;;;;;;;;;;;;-149.78;100.00;50225.03;4905911;29;19919;-71
2022/07/03 05:04:09;;;;;;;;;;;;;;;-149.78;100.00;50217.19;4935999;29;19929;-70
2022/07/03 05:06:34;;;;;;;;;;;;;;;-149.78;100.00;50213.28;4929296;29;20384;-71
2022/07/03 05:09:00;;;;;;;;;;;;;;;-149.78;100.00;50234.81;4922534;29;19931;-70
2022/07/03 05:11:26;;;;;;;;;;;;;;;-149.78;100.00;50221.13;4936533;29;19931;-71
2022/07/03 05:13:51;;;;;;;;;;;;;;;-149.78;100.00;50225.03;4919317;29;21725;-70
2022/07/03 05:16:17;;;;;;;;;;;;;;;-149.78;100.00;50209.38;4936623;29;19927;-70
2022/07/03 05:18:42;;;;;;;;;;;;;;;-149.78;100.00;50209.38;4933694;29;20333;-70
2022/07/03 05:21:08;;;;;;;;;;;;;;;-149.78;100.00;50180.03;4926770;29;20081;-71
2022/07/03 05:23:33;;;;;;;;;;;;;;;-149.78;100.00;50209.38;4936265;29;19930;-71
2022/07/03 05:25:59;;;;;;;;;;;;;;;-149.78;100.00;50221.13;4936371;29;19922;-71
2022/07/03 05:28:24;;;;;;;;;;;;;;;-149.78;100.00;50197.66;4932824;29;19958;-71
2022/07/03 05:30:50;;;;;;;;;;;;;;;-149.78;100.00;50228.94;4925370;29;19975;-71
2022/07/03 05:33:15;;;;;;;;;;;;;;;-149.78;100.00;50225.03;4933562;29;19923;-72
2022/07/03 05:35:41;;;;;;;;;;;;;;;-149.78;100.00;50234.81;4924761;29;20370;-70
2022/07/03 05:38:07;;;;;;;;;;;;;;;-149.78;100.00;50209.38;4922387;29;19930;-71
2022/07/03 05:40:33;;;;;;;;;;;;;;;-149.78;100.00;50217.19;4926170;29;19926;-71
2022/07/03 05:42:58;;;;;;;;;;;;;;;-149.78;100.00;50205.47;4904099;29;20291;-70
2022/07/03 05:45:24;;;;;;;;;;;;;;;-149.78;100.00;50223.06;4926043;29;19915;-71
2022/07/03 05:47:49;;;;;;;;;;;;;;;-149.78;100.00;50230.88;4932631;29;19934;-70
2022/07/03 05:50:15;;;;;;;;;;;;;;;-149.78;100.00;50228.94;4916206;29;19931;-70
2022/07/03 05:52:40;;;;;;;;;;;;;;;-149.78;100.00;50236.75;4930204;29;20033;-71
2022/07/03 05:55:06;;;;;;;;;;;;;;;-149.78;100.00;50185.91;4927469;29;20013;-70
2022/07/03 05:57:32;;;;;;;;;;;;;;;-149.78;100.00;50211.34;4922285;29;19979;-70
2022/07/03 05:59:58;;;;;;;;;;;;;;;-149.78;100.00;50205.47;4925180;29;19922;-70
2022/07/03 06:02:23;;;;;;;;;;;;;;;-149.78;100.00;50219.16;4904997;29;20010;-70
2022/07/03 06:04:48;;;;;;;;;;;;;;;-149.78;100.00;50205.47;4923851;29;19965;-70
2022/07/03 06:07:16;;;;;;;;;;;;;;;-149.78;100.00;50211.34;4926069;29;19923;-70
2022/07/03 06:09:42;;;;;;;;;;;;;;;-149.78;100.00;50187.88;4918811;29;19946;-70
2022/07/03 06:12:09;;;;;;;;;;;;;;;-149.78;100.00;50201.56;4922355;29;19931;-70
2022/07/03 06:14:35;;;;;;;;;;;;;;;-149.78;100.00;50178.09;4924757;29;19918;-70
2022/07/03 06:17:00;;;;;;;;;;;;;;;-149.78;100.00;50221.13;4913285;29;19942;-70
2022/07/03 06:19:26;;;;;;;;;;;;;;;-149.78;100.00;50230.88;4902262;29;20291;-70
2022/07/03 06:21:51;;;;;;;;;;;;;;;-149.78;100.00;50193.72;4904423;29;19919;-71
2022/07/03 06:24:16;;;;;;;;;;;;;;;-149.78;100.00;50223.06;4902494;29;19942;-70
2022/07/03 06:26:42;;;;;;;;;;;;;;;-149.78;100.00;50197.66;4887037;29;20301;-70
2022/07/03 06:29:07;;;;;;;;;;;;;;;-149.78;100.00;50236.75;4903852;29;19927;-70
2022/07/03 06:31:33;;;;;;;;;;;;;;;-149.78;100.00;50199.59;4902885;29;19939;-70
2022/07/03 06:33:58;;;;;;;;;;;;;;;-149.78;100.00;50205.47;4907544;29;20334;-71
2022/07/03 06:36:24;;;;;;;;;;;;;;;-149.78;100.00;50178.09;4902153;29;19931;-71
2022/07/03 06:38:49;;;;;;;;;;;;;;;-149.78;100.00;50209.38;4903690;29;19931;-70
2022/07/03 06:41:15;;;;;;;;;;;;;;;-149.78;100.00;50168.31;4883435;29;19927;-72
2022/07/03 06:43:41;;;;;;;;;;;;;;;-149.78;100.00;50178.09;4898920;29;19920;-71
2022/07/03 06:46:06;;;;;;;;;;;;;;;-149.78;100.00;50182.00;4908395;29;19924;-71
2022/07/03 06:48:31;;;;;;;;;;;;;;;-149.78;100.00;50174.19;4897186;29;19930;-73
2022/07/03 06:50:57;;;;;;;;;;;;;;;-149.78;100.00;50154.63;4905826;29;19927;-71
2022/07/03 06:53:22;;;;;;;;;;;;;;;-149.78;100.00;50146.81;4907478;29;20006;-71
2022/07/03 06:55:48;;;;;;;;;;;;;;;-149.78;100.00;50119.41;4894227;29;19933;-71
2022/07/03 06:58:14;;;;;;;;;;;;;;;-149.78;100.00;50129.19;4906034;29;19927;-71
2022/07/03 07:00:39;;;;;;;;;;;;;;;-149.78;100.00;50162.44;4897421;29;19919;-71
2022/07/03 07:03:05;;;;;;;;;;;;;;;-149.78;100.00;50150.72;4909097;29;19939;-71
2022/07/03 07:05:30;;;;;;;;;;;;;;;-149.78;100.00;50150.72;4911847;29;19991;-71
2022/07/03 07:07:56;;;;;;;;;;;;;;;-149.78;100.00;50187.88;4910058;29;19926;-70
2022/07/03 07:10:22;;;;;;;;;;;;;;;-149.78;100.00;50164.41;4890892;29;19927;-70
2022/07/03 07:12:49;;;;;;;;;;;;;;;-149.78;100.00;50174.19;4909821;29;20434;-70
2022/07/03 07:15:14;;;;;;;;;;;;;;;-149.78;100.00;50197.66;4915997;29;19988;-70
2022/07/03 07:17:40;;;;;;;;;;;;;;;-149.78;100.00;50176.13;4920570;29;19927;-70
2022/07/03 07:20:05;;;;;;;;;;;;;;;-149.78;100.00;50170.25;4930541;29;19970;-71
2022/07/03 07:22:31;;;;;;;;;;;;;;;-149.78;100.00;50228.94;4921478;29;19922;-70
2022/07/03 07:24:57;;;;;;;;;;;;;;;-149.78;100.00;50185.91;4928122;29;19978;-71
2022/07/03 07:27:22;;;;;;;;;;;;;;;-149.78;100.00;50197.66;4924428;29;19935;-70
2022/07/03 07:29:47;;;;;;;;;;;;;;;-149.78;100.00;50195.69;4930365;29;19938;-71
2022/07/03 07:32:13;;;;;;;;;;;;;;;-149.78;100.00;50166.34;4906034;29;19974;-71
2022/07/03 07:34:38;;;;;;;;;;;;;;;-149.78;100.00;50185.91;4924178;29;19938;-71
2022/07/03 07:37:04;;;;;;;;;;;;;;;-149.78;100.00;50201.56;4919156;29;19927;-71
2022/07/03 07:39:29;;;;;;;;;;;;;;;-149.78;100.00;50182.00;4927425;29;20724;-71
2022/07/03 07:41:55;;;;;;;;;;;;;;;-149.78;100.00;50209.38;4929119;29;20025;-71
2022/07/03 07:44:21;;;;;;;;;;;;;;;-149.78;100.00;50232.84;4928099;29;19927;-72
2022/07/03 07:46:46;;;;;;;;;;;;;;;-149.78;100.00;50180.03;4908892;29;19927;-71
2022/07/03 07:49:11;;;;;;;;;;;;;;;-149.78;100.00;50158.53;4926461;29;20387;-70
2022/07/03 07:51:37;;;;;;;;;;;;;;;-149.78;100.00;50166.34;4926796;29;20326;-71
2022/07/03 07:54:02;;;;;;;;;;;;;;;-149.78;100.00;50201.56;4905620;29;20371;-70
2022/07/03 07:56:28;;;;;;;;;;;;;;;-149.78;100.00;50205.47;4928064;29;19934;-71
2022/07/03 07:58:53;;;;;;;;;;;;;;;-149.78;100.00;50203.50;4926997;29;19927;-71
2022/07/03 08:06:47;;;;;;;;;;;;;;;-149.78;100.00;50182.00;4925354;29;20010;-71
2022/07/03 08:09:13;;;;;;;;;;;;;;;-149.78;100.00;50174.19;4890710;29;20756;-71
2022/07/03 08:11:38;;;;;;;;;;;;;;;-149.78;100.00;50127.25;4928734;29;19941;-73
2022/07/03 08:14:05;;;;;;;;;;;;;;;-149.78;100.00;50178.09;4884749;29;19927;-71
2022/07/03 08:16:30;;;;;;;;;;;;;;;-149.78;100.00;50182.00;4925388;29;19939;-71
2022/07/03 08:18:56;;;;;;;;;;;;;;;-149.78;100.00;50133.09;4922159;29;19922;-71
2022/07/03 08:21:22;;;;;;;;;;;;;;;-149.78;100.00;50187.88;4924758;29;20729;-70
2022/07/03 08:23:47;;;;;;;;;;;;;;;-149.78;100.00;50178.09;4922877;29;20023;-71
2022/07/03 08:26:12;;;;;;;;;;;;;;;-149.78;100.00;50178.09;4913161;29;19927;-71
2022/07/03 08:28:38;;;;;;;;;;;;;;;-149.78;100.00;50154.63;4907353;29;20050;-71
2022/07/03 08:31:04;;;;;;;;;;;;;;;-149.78;100.00;50180.03;4928611;29;19930;-71
2022/07/03 08:33:29;;;;;;;;;;;;;;;-149.78;100.00;50142.88;4926307;29;19931;-72
2022/07/03 08:35:55;;;;;;;;;;;;;;;-149.78;100.00;50154.63;4927861;29;20274;-71
2022/07/03 08:38:25;;;;;;;;;;;;;;;-149.78;100.00;50166.34;4920180;29;19938;-71
2022/07/03 08:40:51;;;;;;;;;;;;;;;-149.78;100.00;50138.97;4927081;29;19919;-71
2022/07/03 08:43:17;;;;;;;;;;;;;;;-149.78;100.00;50201.56;4922384;29;20501;-71
2022/07/03 08:45:43;;;;;;;;;;;;;;;-149.78;100.00;50146.81;4919076;29;19966;-71
2022/07/03 08:48:08;;;;;;;;;;;;;;;-149.78;100.00;50154.63;4923332;29;19969;-70
2022/07/03 08:50:35;;;;;;;;;;;;;;;-149.78;100.00;50158.53;4916661;29;19931;-71
2022/07/03 08:53:03;;;;;;;;;;;;;;;-149.78;100.00;50133.09;4920481;29;19926;-71
2022/07/03 08:55:28;;;;;;;;;;;;;;;-149.78;100.00;50146.81;4918503;29;20413;-71
2022/07/03 08:57:55;;;;;;;;;;;;;;;-149.78;100.00;50131.16;4920146;29;19923;-71
2022/07/03 09:00:21;;;;;;;;;;;;;;;-149.78;100.00;50131.16;4922245;29;19966;-72
2022/07/03 09:02:47;;;;;;;;;;;;;;;-149.78;100.00;50148.75;4918256;29;20030;-71
2022/07/03 09:05:14;;;;;;;;;;;;;;;-149.78;100.00;50150.72;4916861;29;19923;-72
2022/07/03 09:07:40;;;;;;;;;;;;;;;-149.78;100.00;50144.84;4916868;29;20426;-72
2022/07/03 09:10:07;;;;;;;;;;;;;;;-149.78;100.00;50111.59;4920793;29;19926;-72
2022/07/03 09:12:33;;;;;;;;;;;;;;;-149.78;100.00;50135.06;4898019;29;19931;-71
2022/07/03 09:14:58;;;;;;;;;;;;;;;-149.78;100.00;50138.97;4913579;29;19931;-72
2022/07/03 09:17:24;;;;;;;;;;;;;;;-149.78;100.00;50138.97;4916086;29;20607;-72
2022/07/03 09:19:50;;;;;;;;;;;;;;;-149.78;100.00;50117.47;4914632;29;19923;-72
2022/07/03 09:22:19;;;;;;;;;;;;;;;-149.78;100.00;50123.34;4912849;29;20005;-72
2022/07/03 09:24:45;;;;;;;;;;;;;;;-149.78;100.00;50131.16;4916589;29;19934;-72
2022/07/03 09:27:15;;;;;;;;;;;;;;;-149.78;100.00;50162.44;4914083;29;19923;-72
2022/07/03 09:29:50;;;;;;;;;;;;;;;-149.78;100.00;50142.88;4915821;29;20386;-73
2022/07/03 09:32:16;;;;;;;;;;;;;;;-149.78;100.00;50158.53;4911540;29;19947;-71
2022/07/03 09:34:41;;;;;;;;;;;;;;;-149.78;100.00;50146.81;4914280;29;19952;-72
2022/07/03 09:37:07;;;;;;;;;;;;;;;-149.78;100.00;50158.53;4901304;29;19927;-72
2022/07/03 09:39:36;;;;;;;;;;;;;;;-149.78;100.00;50162.44;4919935;29;19927;-71
2022/07/03 09:42:03;;;;;;;;;;;;;;;-149.78;100.00;50115.50;4901242;29;20007;-71
2022/07/03 09:44:35;;;;;;;;;;;;;;;-149.78;100.00;50131.16;4914878;29;19927;-72
2022/07/03 09:47:21;;;;;;;;;;;;;;;-149.78;100.00;50125.28;4918443;29;19934;-72
2022/07/03 09:49:46;;;;;;;;;;;;;;;-149.78;100.00;50119.41;4918369;29;19933;-72
2022/07/03 09:52:31;;;;;;;;;;;;;;;-149.78;100.00;50146.81;4916159;29;19927;-70
2022/07/03 09:54:57;;;;;;;;;;;;;;;-149.78;100.00;50121.38;4915140;29;19945;-71
2022/07/03 09:57:23;;;;;;;;;;;;;;;-149.78;100.00;50148.75;4917519;29;19923;-72
2022/07/03 09:59:48;;;;;;;;;;;;;;;-149.78;100.00;50107.69;4899720;29;19958;-72
2022/07/03 10:02:14;;;;;;;;;;;;;;;-149.78;100.00;50174.19;4915542;29;19933;-71
2022/07/03 10:04:39;;;;;;;;;;;;;;;-149.78;100.00;50174.19;4916007;29;19961;-70
2022/07/03 10:07:05;;;;;;;;;;;;;;;-149.78;100.00;50135.06;4918253;29;19922;-70
2022/07/03 10:09:31;;;;;;;;;;;;;;;-149.78;100.00;50158.53;4917321;29;19930;-72
2022/07/03 10:11:58;;;;;;;;;;;;;;;-149.78;100.00;50135.06;4920190;29;20382;-71
2022/07/03 10:14:28;;;;;;;;;;;;;;;-149.78;100.00;50123.34;4918286;29;19923;-71
2022/07/03 10:16:57;;;;;;;;;;;;;;;-149.78;100.00;50117.47;4922288;29;20037;-71
2022/07/03 10:19:25;;;;;;;;;;;;;;;-149.78;100.00;50115.50;4923343;29;19918;-70
2022/07/03 10:21:55;;;;;;;;;;;;;;;-149.78;100.00;50105.72;4917154;29;19946;-71
2022/07/03 10:24:27;;;;;;;;;;;;;;;-149.78;100.00;50113.56;4918709;29;19925;-71
2022/07/03 10:26:53;;;;;;;;;;;;;;;-149.78;100.00;50117.47;4904301;29;19919;-74
2022/07/03 10:29:20;;;;;;;;;;;;;;;-149.78;100.00;50146.81;4930718;29;20573;-73
2022/07/03 10:31:48;;;;;;;;;;;;;;;-149.78;100.00;50138.97;4902460;29;19927;-72
2022/07/03 10:34:18;;;;;;;;;;;;;;;-149.78;100.00;50162.44;4918527;29;19923;-71
2022/07/03 10:36:44;;;;;;;;;;;;;;;-149.78;100.00;50166.34;4922408;29;20347;-70
2022/07/03 10:39:13;;;;;;;;;;;;;;;-149.78;100.00;50183.97;4923772;29;20043;-70
2022/07/03 10:47:27;;;;;;;;;;;;;;;-149.78;100.00;50135.06;4932417;29;19931;-70
2022/07/03 10:50:00;;;;;;;;;;;;;;;-149.78;100.00;50166.34;4926774;29;19990;-70
2022/07/03 10:52:25;;;;;;;;;;;;;;;-149.78;100.00;50115.50;4929672;29;19930;-70
2022/07/03 10:54:56;;;;;;;;;;;;;;;-149.78;100.00;50103.78;4893335;29;19923;-71
2022/07/03 10:57:21;;;;;;;;;;;;;;;-149.78;100.00;50088.13;4927249;29;19923;-71
2022/07/03 10:59:47;;;;;;;;;;;;;;;-149.78;100.00;50045.09;4927957;29;19926;-70
2022/07/03 11:02:31;;;;;;;;;;;;;;;-149.78;86.46;50035.34;4927528;29;20372;-71
2022/07/03 11:04:57;;;;;;;;;;;;;;;-149.78;80.02;50078.34;4922276;29;20351;-71
2022/07/03 11:07:23;;;;;;;;;;;;;;;-149.78;74.49;50056.84;4928975;29;19919;-71
2022/07/03 11:10:07;;;;;;;;;;;;;;;-149.78;77.01;50043.16;4922971;29;19934;-70
2022/07/03 11:12:51;;;;;;;;;;;;;;;-149.78;67.02;50021.63;4932054;29;19930;-70
2022/07/03 11:15:30;;;;;;;;;;;;;;;-149.78;62.06;50013.81;4925452;29;19931;-70
2022/07/03 11:18:13;;;;;;;;;;;;;;;-149.78;61.38;50017.72;4926835;29;19958;-71
2022/07/03 11:20:39;;;;;;;;;;;;;;;-149.78;58.76;49998.19;4934988;29;19942;-71
2022/07/03 11:23:13;;;;;;;;;;;;;;;-149.78;58.31;50006.00;4926359;29;20282;-71
2022/07/03 11:25:38;;;;;;;;;;;;;;;-149.78;53.24;49988.41;4922661;29;19927;-71
2022/07/03 11:28:03;;;;;;;;;;;;;;;-149.78;50.81;49998.19;4925813;29;19923;-71
2022/07/03 11:30:31;;;;;;;;;;;;;;;-149.78;55.98;50011.88;4921095;29;19927;-71
2022/07/03 11:32:57;;;;;;;;;;;;;;;-149.78;54.57;50041.19;4922577;29;20405;-70
2022/07/03 11:35:41;;;;;;;;;;;;;;;-149.78;51.84;50002.09;4928171;29;19924;-71
2022/07/03 11:38:07;;;;;;;;;;;;;;;-149.78;51.28;49974.72;4932522;29;19920;-70
2022/07/03 11:40:36;;;;;;;;;;;;;;;-149.78;49.37;50017.72;4927882;29;20410;-71
2022/07/03 11:43:01;;;;;;;;;;;;;;;-149.78;52.10;49976.66;4933764;29;20054;-70
2022/07/03 11:45:30;;;;;;;;;;;;;;;-149.78;50.08;49970.78;4928910;29;20025;-71
2022/07/03 11:47:55;;;;;;;;;;;;;;;-149.78;46.35;49966.88;4926597;29;20017;-71
2022/07/03 11:50:35;;;;;;;;;;;;;;;-149.78;46.75;49994.25;4926714;29;20010;-69
2022/07/03 11:53:14;;;;;;;;;;;;;;;-149.78;48.56;50006.00;4927649;29;20392;-71
2022/07/03 11:55:50;;;;;;;;;;;;;;;-149.78;48.85;50037.28;4895568;29;19926;-70
2022/07/03 11:58:16;;;;;;;;;;;;;;;-149.78;52.06;50009.91;4932120;29;19926;-71
2022/07/03 12:00:41;;;;;;;;;;;;;;;-149.78;52.81;50019.69;4926011;29;19916;-69
2022/07/03 12:03:07;;;;;;;;;;;;;;;-149.78;53.42;50029.47;4927901;29;19980;-71
2022/07/03 12:05:33;;;;;;;;;;;;;;;-149.78;53.42;50013.81;4914563;29;19934;-71
2022/07/03 12:08:03;;;;;;;;;;;;;;;-149.78;49.99;50050.97;4926144;29;19923;-71
2022/07/03 12:10:39;;;;;;;;;;;;;;;-149.78;50.50;50033.38;4918978;29;19966;-70
2022/07/03 12:13:17;;;;;;;;;;;;;;;-149.78;51.08;50047.06;4926790;29;19935;-71
2022/07/03 12:15:43;;;;;;;;;;;;;;;-149.78;51.89;50029.47;4928451;29;19923;-70
2022/07/03 12:18:08;;;;;;;;;;;;;;;-149.78;50.67;50021.63;4916879;29;19938;-71
2022/07/03 12:20:34;;;;;;;;;;;;;;;-149.78;48.67;49998.19;4892134;29;19930;-71
2022/07/03 12:22:59;;;;;;;;;;;;;;;-149.78;46.71;50015.78;4909218;29;19930;-71
2022/07/03 12:25:29;;;;;;;;;;;;;;;-149.78;48.45;50049.03;4904610;29;20430;-72
2022/07/03 12:27:54;;;;;;;;;;;;;;;-149.78;49.45;50037.28;4914827;29;20352;-71
2022/07/03 12:30:27;;;;;;;;;;;;;;;-149.78;51.87;50062.72;4887135;29;19969;-71
2022/07/03 12:32:52;;;;;;;;;;;;;;;-149.78;52.45;50047.06;4896799;29;19923;-71